首页
METAR-TAF:

METAR-TAF

机场 :

小萨尔加多国际机场

阿雷格里港, 南里奥格兰德州, 巴西

纬度: 30-00S, 经度: 051-11W, 海拔: 3米

METAR: 丢失

时间: 16:35 (19:35 UTC)

预报

该预报发布于4小时和35分钟前的15:00 UTC
预报有效从24日的 18点(UTC)到 25日的 18点(UTC)
风速4节,风向东转东北
能见度10公里或以上
1500米以下无云,无积雨云
成为
从 25日的 01点(UTC)到 25日的 03点(UTC)
风速5节,风向北转西北
能見度: 4000
轻雾
成为
从 25日的 09点(UTC)到 25日的 11点(UTC)
能见度10公里或以上
1500米以下无云,无积雨云
成为
从 25日的 15点(UTC)到 25日的 17点(UTC)
风速10节,风向南转南东

TAF: SBPA 241500Z 2418/2518 06004KT CAVOK TX27/2418Z TN16/2508Z BECMG 2501/2503 33005KT 4000 BR NSC BECMG 2509/2511 CAVOK BECMG 2515/2517 15010KT RMK PDY

超过4000个机场的气象观测和天气预报(METAR&TAF报告)。

可查询的气象台以黄色和红色小点在地图上表示。

将鼠标移到小点上方,可查看气象台名称。

然后点击查看天气观测和预报。

如需切换地图:点击带黑十字的绿色按钮放大地图;点击带横线的绿色按钮缩小地图;或者点击绿色箭头查看邻近地区的地图。


METAR-TAF: